createdAt,value
2017-08-19T00:02:21.846Z,98.40
2017-08-19T00:04:49.330Z,98.10
2017-08-19T00:07:16.850Z,98.20
2017-08-19T00:09:44.339Z,98.10
2017-08-19T00:12:11.851Z,98.20
2017-08-19T00:14:39.340Z,98.30
2017-08-19T00:17:06.856Z,98.30
2017-08-19T00:19:34.347Z,98.10
2017-08-19T00:22:01.831Z,97.90
2017-08-19T00:24:29.347Z,98.00
2017-08-19T00:26:56.833Z,98.00
2017-08-19T00:29:24.326Z,98.10
2017-08-19T00:31:51.802Z,98.10
2017-08-19T00:34:19.296Z,98.10
2017-08-19T00:36:46.786Z,98.40
2017-08-19T00:39:14.279Z,98.70
2017-08-19T00:41:41.775Z,98.90
2017-08-19T00:44:09.258Z,99.00
2017-08-19T00:46:36.761Z,98.80
2017-08-19T00:49:04.234Z,98.80
2017-08-19T00:51:31.758Z,98.70
2017-08-19T00:53:59.538Z,98.80
2017-08-19T00:56:27.054Z,98.70
2017-08-19T00:58:54.568Z,98.70
2017-08-19T01:01:22.074Z,98.80
2017-08-19T01:03:49.565Z,98.70
2017-08-19T01:06:17.095Z,98.80
2017-08-19T01:08:44.587Z,98.70
2017-08-19T01:11:12.097Z,98.70
2017-08-19T01:13:40.530Z,98.70
2017-08-19T01:16:08.013Z,98.50
2017-08-19T01:18:35.510Z,98.30
2017-08-19T01:21:03.004Z,98.30
2017-08-19T01:23:30.510Z,98.10
2017-08-19T01:26:09.780Z,98.20
2017-08-19T01:28:37.290Z,98.30
2017-08-19T01:31:04.787Z,98.50
2017-08-19T01:33:32.289Z,98.50
2017-08-19T01:35:59.794Z,98.50
2017-08-19T01:38:27.279Z,98.40
2017-08-19T01:40:54.779Z,98.50
2017-08-19T01:43:22.266Z,98.40
2017-08-19T01:45:49.771Z,98.50
2017-08-19T01:48:17.262Z,98.70
2017-08-19T01:50:44.759Z,98.80
2017-08-19T01:53:12.237Z,99.00
2017-08-19T01:55:39.754Z,99.00
2017-08-19T01:58:07.238Z,99.00
2017-08-19T02:00:34.750Z,99.10
2017-08-19T02:03:02.343Z,99.00
2017-08-19T02:05:29.862Z,99.20
2017-08-19T02:07:57.352Z,99.30
2017-08-19T02:10:24.891Z,99.30
2017-08-19T02:12:52.386Z,99.40
2017-08-19T02:15:19.899Z,99.40
2017-08-19T02:17:47.398Z,99.30
2017-08-19T02:20:14.905Z,99.30
2017-08-19T02:22:43.301Z,99.30
2017-08-19T02:25:11.738Z,99.30
2017-08-19T02:27:39.248Z,99.40
2017-08-19T02:30:06.758Z,99.30
2017-08-19T02:32:34.246Z,99.20
2017-08-19T02:35:01.755Z,99.10
2017-08-19T02:37:30.182Z,99.00
2017-08-19T02:39:57.694Z,99.00
2017-08-19T02:42:25.211Z,99.10
2017-08-19T02:44:54.685Z,99.20
2017-08-19T02:47:22.166Z,99.10
2017-08-19T02:49:49.682Z,98.80
2017-08-19T02:52:17.196Z,98.90
2017-08-19T02:54:44.687Z,99.00
2017-08-19T02:57:12.199Z,98.90
2017-08-19T02:59:39.691Z,98.90
2017-08-19T03:02:07.390Z,99.00
2017-08-19T03:04:34.914Z,99.10
2017-08-19T03:07:03.414Z,99.20
2017-08-19T03:09:30.937Z,99.30
2017-08-19T03:11:58.422Z,99.40
2017-08-19T03:14:25.918Z,99.50
2017-08-19T03:16:53.427Z,99.50
2017-08-19T03:19:21.872Z,99.50
2017-08-19T03:21:49.379Z,99.50
2017-08-19T03:24:17.782Z,99.30
2017-08-19T03:26:45.271Z,99.30
2017-08-19T03:29:14.763Z,99.20
2017-08-19T03:31:42.288Z,99.00
2017-08-19T03:34:09.785Z,98.80
2017-08-19T03:36:37.303Z,98.80
2017-08-19T03:39:04.795Z,98.80
2017-08-19T03:41:34.249Z,98.80
2017-08-19T03:44:01.738Z,98.80
2017-08-19T03:46:29.239Z,98.90
2017-08-19T03:48:56.728Z,99.00
2017-08-19T03:51:24.237Z,98.90
2017-08-19T03:53:51.728Z,99.00
2017-08-19T03:56:21.173Z,99.00
2017-08-19T03:58:48.662Z,98.90
2017-08-19T04:01:16.166Z,98.70
2017-08-19T04:03:43.704Z,98.90
2017-08-19T04:06:11.199Z,99.00
2017-08-19T04:08:38.717Z,99.00
2017-08-19T04:11:06.202Z,99.00
2017-08-19T04:13:33.690Z,98.90
2017-08-19T04:16:01.194Z,98.90
2017-08-19T04:18:28.688Z,98.40
2017-08-19T04:20:56.199Z,98.40
2017-08-19T04:23:23.690Z,98.50
2017-08-19T04:25:51.174Z,98.60
2017-08-19T04:28:18.682Z,98.60
2017-08-19T04:30:46.194Z,98.60
2017-08-19T04:33:13.686Z,98.80
2017-08-19T04:35:41.204Z,98.70
2017-08-19T04:38:08.798Z,98.60
2017-08-19T04:40:36.302Z,98.80
2017-08-19T04:43:03.786Z,99.00
2017-08-19T04:45:31.286Z,98.80
2017-08-19T04:47:58.801Z,98.80
2017-08-19T04:50:26.295Z,98.60
2017-08-19T04:52:53.818Z,98.70
2017-08-19T04:55:21.309Z,98.50
2017-08-19T04:57:48.798Z,98.40
2017-08-19T05:00:16.299Z,98.40
2017-08-19T05:02:43.781Z,98.50
2017-08-19T05:05:13.218Z,98.40
2017-08-19T05:07:40.715Z,98.20
2017-08-19T05:10:08.214Z,98.00
2017-08-19T05:12:35.702Z,98.10
2017-08-19T05:15:03.224Z,98.10
2017-08-19T05:17:31.665Z,98.30
2017-08-19T05:19:59.192Z,98.00
2017-08-19T05:22:26.687Z,97.90
2017-08-19T05:24:54.205Z,97.90
2017-08-19T05:27:21.686Z,97.80
2017-08-19T05:29:49.201Z,97.90
2017-08-19T05:32:16.694Z,97.60
2017-08-19T05:34:44.211Z,97.70
2017-08-19T05:37:12.634Z,97.80
2017-08-19T05:39:41.089Z,98.10
2017-08-19T05:42:08.622Z,98.10
2017-08-19T05:44:36.128Z,98.10
2017-08-19T05:47:03.695Z,98.20
2017-08-19T05:49:31.192Z,97.90
2017-08-19T05:51:58.699Z,97.80
2017-08-19T05:54:26.210Z,97.50
2017-08-19T05:56:53.702Z,96.70
2017-08-19T05:59:21.210Z,96.30
2017-08-19T06:01:48.710Z,96.30
2017-08-19T06:04:16.219Z,95.80
2017-08-19T06:06:43.730Z,95.70
2017-08-19T06:09:11.230Z,95.20
2017-08-19T06:11:38.720Z,94.70
2017-08-19T06:14:06.218Z,93.60
2017-08-19T06:16:33.710Z,94.00
2017-08-19T06:19:01.227Z,93.60
2017-08-19T06:21:28.743Z,93.80
2017-08-19T06:23:56.284Z,92.60
2017-08-19T06:26:23.780Z,93.20
2017-08-19T06:28:51.286Z,92.60
2017-08-19T06:31:18.771Z,93.20
2017-08-19T06:33:46.294Z,92.50
2017-08-19T06:36:13.774Z,91.30
2017-08-19T06:38:41.279Z,92.30
2017-08-19T06:41:08.771Z,91.20
2017-08-19T06:43:37.151Z,90.20
2017-08-19T06:46:04.699Z,90.10
2017-08-19T06:48:32.190Z,91.00
2017-08-19T06:50:59.703Z,91.40
2017-08-19T06:53:27.195Z,89.80
2017-08-19T06:55:54.715Z,87.80
2017-08-19T06:58:22.228Z,88.70
2017-08-19T07:00:49.734Z,88.00
2017-08-19T07:03:18.178Z,87.20
2017-08-19T07:05:45.711Z,87.50
2017-08-19T07:08:13.199Z,88.00
2017-08-19T07:10:40.701Z,89.00
2017-08-19T07:13:08.195Z,86.80
2017-08-19T07:15:37.643Z,86.80
2017-08-19T07:18:05.146Z,87.40
2017-08-19T07:20:32.674Z,87.50
2017-08-19T07:23:00.164Z,86.10
2017-08-19T07:25:27.657Z,86.00
2017-08-19T07:27:55.142Z,86.10
2017-08-19T07:30:23.555Z,86.20
2017-08-19T07:32:51.058Z,88.80
2017-08-19T07:35:18.547Z,87.20
2017-08-19T07:37:46.041Z,86.20
2017-08-19T07:40:13.530Z,86.60
2017-08-19T07:42:41.014Z,83.80
2017-08-19T07:45:08.530Z,84.10
2017-08-19T07:47:36.027Z,83.40
2017-08-19T07:50:03.546Z,84.20
2017-08-19T07:52:31.062Z,83.70
2017-08-19T07:54:58.739Z,83.00
2017-08-19T07:57:26.433Z,83.20
2017-08-19T07:59:54.342Z,82.50
2017-08-19T08:02:21.847Z,82.70
2017-08-19T08:04:49.394Z,82.60
2017-08-19T08:07:17.719Z,82.90
2017-08-19T08:09:45.238Z,84.30
2017-08-19T08:12:13.665Z,82.50
2017-08-19T08:14:41.175Z,82.30
2017-08-19T08:17:08.692Z,81.90
2017-08-19T08:19:36.175Z,82.90
2017-08-19T08:22:03.708Z,82.40
2017-08-19T08:24:31.194Z,82.70
2017-08-19T08:26:58.737Z,81.70
2017-08-19T08:29:26.226Z,81.30
2017-08-19T08:31:53.764Z,82.10
2017-08-19T08:34:21.264Z,81.30
2017-08-19T08:36:50.732Z,81.40
2017-08-19T08:39:18.222Z,81.30
2017-08-19T08:41:45.735Z,80.40
2017-08-19T08:44:13.235Z,80.40
2017-08-19T08:46:40.739Z,79.30
2017-08-19T08:49:08.224Z,79.80
2017-08-19T08:51:35.749Z,79.50
2017-08-19T08:54:03.263Z,80.20
2017-08-19T08:56:30.803Z,80.70
2017-08-19T08:58:58.430Z,79.10
2017-08-19T09:01:25.936Z,78.70
2017-08-19T09:03:53.420Z,78.90
2017-08-19T09:06:21.960Z,80.70
2017-08-19T09:08:49.459Z,79.20
2017-08-19T09:11:16.947Z,77.20
2017-08-19T09:13:44.438Z,78.40
2017-08-19T09:16:11.918Z,79.10
2017-08-19T09:18:41.370Z,79.20
2017-08-19T09:21:08.853Z,78.40
2017-08-19T09:23:36.647Z,78.60
2017-08-19T09:26:04.163Z,78.20
2017-08-19T09:28:31.655Z,78.00
2017-08-19T09:30:59.151Z,78.90
2017-08-19T09:33:26.666Z,79.70
2017-08-19T09:35:54.158Z,78.90
2017-08-19T09:38:21.667Z,77.00
2017-08-19T09:40:49.157Z,78.30
2017-08-19T09:43:16.700Z,77.60
2017-08-19T09:45:44.202Z,77.30
2017-08-19T09:48:11.711Z,77.20
2017-08-19T09:50:39.195Z,77.80
2017-08-19T09:53:06.703Z,76.20
2017-08-19T09:55:34.170Z,76.60
2017-08-19T09:58:01.658Z,77.00
2017-08-19T10:00:29.226Z,77.50
2017-08-19T10:02:56.718Z,76.90
2017-08-19T10:05:24.217Z,76.60
2017-08-19T10:07:51.739Z,77.00
2017-08-19T10:10:30.918Z,75.50
2017-08-19T10:12:58.434Z,76.60
2017-08-19T10:15:27.000Z,76.30
2017-08-19T10:17:54.548Z,75.10
2017-08-19T10:20:22.105Z,76.80
2017-08-19T10:22:49.614Z,77.20
2017-08-19T10:25:19.062Z,75.30
2017-08-19T10:27:46.554Z,75.60
2017-08-19T10:30:15.975Z,75.70
2017-08-19T10:32:43.456Z,75.90
2017-08-19T10:35:11.827Z,74.30
2017-08-19T10:37:40.321Z,75.50
2017-08-19T10:40:07.890Z,74.30
2017-08-19T10:42:35.381Z,74.70
2017-08-19T10:45:02.875Z,72.70
2017-08-19T10:47:32.323Z,72.30
2017-08-19T10:49:59.806Z,74.20
2017-08-19T10:52:27.324Z,72.40
2017-08-19T10:54:54.800Z,72.90
2017-08-19T10:57:23.185Z,72.80
2017-08-19T10:59:50.683Z,73.80
2017-08-19T11:02:18.161Z,73.60
2017-08-19T11:04:45.655Z,72.70
2017-08-19T11:07:14.122Z,73.50
2017-08-19T11:09:41.687Z,73.80
2017-08-19T11:12:09.167Z,71.90
2017-08-19T11:14:36.717Z,71.00
2017-08-19T11:17:04.218Z,70.00
2017-08-19T11:19:31.722Z,70.60
2017-08-19T11:21:59.275Z,70.80
2017-08-19T11:24:26.803Z,69.50
2017-08-19T11:26:56.236Z,70.40
2017-08-19T11:29:23.720Z,70.00
2017-08-19T11:31:51.250Z,70.30
2017-08-19T11:34:19.679Z,69.40
2017-08-19T11:36:47.180Z,70.50
2017-08-19T11:39:14.664Z,71.10
2017-08-19T11:41:43.262Z,69.80
2017-08-19T11:44:10.774Z,71.10
2017-08-19T11:46:38.270Z,71.80
2017-08-19T11:49:06.380Z,69.30
2017-08-19T11:51:33.934Z,68.80
2017-08-19T11:54:01.468Z,69.90
2017-08-19T11:56:29.983Z,71.00
2017-08-19T11:58:57.536Z,70.40
2017-08-19T12:01:25.045Z,70.30
2017-08-19T12:03:52.563Z,69.90
2017-08-19T12:06:20.062Z,71.50
2017-08-19T12:08:47.593Z,71.20
2017-08-19T12:11:17.113Z,71.50
2017-08-19T12:13:44.647Z,70.30
2017-08-19T12:16:12.211Z,70.50
2017-08-19T12:18:39.713Z,71.40
2017-08-19T12:21:09.760Z,70.30
2017-08-19T12:23:37.307Z,71.70
2017-08-19T12:26:06.797Z,70.80
2017-08-19T12:28:34.336Z,68.70
2017-08-19T12:31:01.994Z,69.70
2017-08-19T12:33:29.547Z,70.60
2017-08-19T12:35:57.027Z,72.00
2017-08-19T12:38:24.531Z,71.10
2017-08-19T12:40:52.202Z,69.90
2017-08-19T12:43:19.779Z,69.50
2017-08-19T12:45:47.271Z,70.10
2017-08-19T12:48:15.803Z,69.90
2017-08-19T12:50:43.654Z,70.90
2017-08-19T12:53:11.247Z,70.70
2017-08-19T12:55:39.563Z,70.70
2017-08-19T12:58:07.091Z,71.80
2017-08-19T13:00:34.583Z,71.50
2017-08-19T13:03:03.200Z,72.00
2017-08-19T13:05:30.684Z,71.20
2017-08-19T13:07:58.215Z,70.20
2017-08-19T13:10:25.694Z,70.40
2017-08-19T13:12:53.214Z,71.90
2017-08-19T13:15:21.667Z,68.90
2017-08-19T13:17:49.350Z,70.90
2017-08-19T13:20:18.815Z,70.80
2017-08-19T13:22:47.084Z,69.90
2017-08-19T13:25:14.606Z,68.90
2017-08-19T13:27:42.267Z,69.00
2017-08-19T13:30:11.715Z,69.20
2017-08-19T13:32:39.223Z,67.20
2017-08-19T13:35:06.722Z,68.60
2017-08-19T13:37:34.370Z,67.60
2017-08-19T13:40:01.907Z,68.20
2017-08-19T13:42:31.446Z,68.10
2017-08-19T13:44:58.970Z,69.40
2017-08-19T13:47:26.475Z,68.20
2017-08-19T13:49:53.967Z,70.00
2017-08-19T13:52:22.454Z,71.30
2017-08-19T13:54:49.954Z,68.80
2017-08-19T13:57:17.510Z,68.90
2017-08-19T13:59:44.986Z,69.70
2017-08-19T14:02:12.498Z,69.10
2017-08-19T14:04:39.981Z,70.40
2017-08-19T14:07:07.494Z,69.20
2017-08-19T14:09:35.931Z,69.20
2017-08-19T14:12:03.442Z,69.60
2017-08-19T14:14:30.931Z,69.40
2017-08-19T14:16:58.446Z,68.50
2017-08-19T14:19:25.935Z,68.00
2017-08-19T14:21:53.436Z,68.20
2017-08-19T14:24:20.915Z,68.70
2017-08-19T14:26:48.415Z,68.40
2017-08-19T14:29:16.842Z,68.10
2017-08-19T14:31:44.390Z,68.10
2017-08-19T14:34:11.883Z,69.00
2017-08-19T14:36:39.414Z,68.30
2017-08-19T14:39:07.866Z,68.00
2017-08-19T14:41:35.385Z,69.00
2017-08-19T14:44:02.914Z,68.40
2017-08-19T14:46:30.467Z,69.90
2017-08-19T14:48:57.952Z,69.10
2017-08-19T14:51:25.456Z,68.10
2017-08-19T14:53:52.951Z,70.00
2017-08-19T14:56:20.469Z,69.70
2017-08-19T14:58:48.918Z,68.30
2017-08-19T15:01:17.355Z,69.00
2017-08-19T15:03:44.838Z,68.60
2017-08-19T15:06:12.330Z,68.90
2017-08-19T15:08:39.821Z,69.40
2017-08-19T15:11:07.330Z,69.40
2017-08-19T15:13:34.828Z,69.60
2017-08-19T15:16:02.358Z,68.20
2017-08-19T15:18:29.863Z,68.20
2017-08-19T15:20:57.358Z,69.80
2017-08-19T15:23:24.934Z,69.80
2017-08-19T15:25:52.483Z,69.00
2017-08-19T15:28:20.035Z,70.70
2017-08-19T15:30:48.466Z,70.20
2017-08-19T15:33:16.923Z,70.40
2017-08-19T15:35:44.407Z,69.40
2017-08-19T15:38:11.919Z,70.10
2017-08-19T15:40:39.414Z,69.70
2017-08-19T15:43:07.752Z,69.70
2017-08-19T15:45:36.317Z,70.70
2017-08-19T15:48:03.831Z,70.60
2017-08-19T15:50:31.367Z,70.60
2017-08-19T15:52:58.874Z,70.90
2017-08-19T15:55:26.366Z,70.90
2017-08-19T15:57:53.866Z,71.80
2017-08-19T16:00:21.351Z,70.60
2017-08-19T16:02:48.847Z,71.40
2017-08-19T16:05:16.339Z,70.10
2017-08-19T16:07:43.861Z,69.80
2017-08-19T16:10:12.306Z,70.40
2017-08-19T16:12:39.819Z,70.90
2017-08-19T16:15:07.307Z,70.70
2017-08-19T16:17:34.809Z,70.10
2017-08-19T16:20:02.280Z,70.60
2017-08-19T16:22:29.800Z,71.20
2017-08-19T16:24:57.295Z,71.60
2017-08-19T16:27:24.791Z,72.20
2017-08-19T16:29:52.278Z,73.10
2017-08-19T16:32:19.790Z,72.20
2017-08-19T16:34:47.294Z,72.50
2017-08-19T16:37:14.811Z,71.70
2017-08-19T16:39:42.299Z,71.20
2017-08-19T16:42:10.759Z,71.40
2017-08-19T16:44:38.298Z,72.90
2017-08-19T16:47:05.799Z,72.50
2017-08-19T16:49:33.279Z,73.40
2017-08-19T16:52:00.786Z,75.20
2017-08-19T16:54:28.306Z,72.80
2017-08-19T16:56:57.763Z,72.80
2017-08-19T16:59:25.291Z,73.50
2017-08-19T17:01:52.778Z,72.40
2017-08-19T17:04:20.277Z,71.90
2017-08-19T17:06:47.799Z,72.00
2017-08-19T17:09:15.288Z,72.00
2017-08-19T17:11:43.790Z,73.00
2017-08-19T17:14:11.287Z,72.10
2017-08-19T17:16:38.932Z,72.90
2017-08-19T17:19:06.475Z,72.20
2017-08-19T17:21:33.992Z,73.20
2017-08-19T17:24:01.518Z,73.20
2017-08-19T17:26:28.997Z,74.20
2017-08-19T17:28:56.491Z,73.10
2017-08-19T17:31:23.980Z,73.20
2017-08-19T17:33:51.497Z,73.40
2017-08-19T17:36:18.973Z,73.70
2017-08-19T17:38:46.470Z,73.20
2017-08-19T17:41:13.980Z,73.00
2017-08-19T17:43:41.492Z,73.70
2017-08-19T17:46:09.000Z,74.70
2017-08-19T17:48:38.433Z,75.00
2017-08-19T17:51:05.930Z,75.20
2017-08-19T17:53:34.423Z,75.30
2017-08-19T17:56:02.026Z,75.50
2017-08-19T17:58:29.575Z,75.90
2017-08-19T18:00:57.088Z,76.00
2017-08-19T18:03:24.586Z,76.80
2017-08-19T18:05:52.091Z,77.10
2017-08-19T18:08:19.696Z,77.10
2017-08-19T18:10:47.201Z,77.80
2017-08-19T18:13:14.747Z,78.90
2017-08-19T18:15:42.278Z,79.30
2017-08-19T18:18:09.934Z,79.10
2017-08-19T18:20:37.506Z,79.40
2017-08-19T18:23:05.227Z,79.10
2017-08-19T18:25:32.821Z,79.50
2017-08-19T18:28:00.403Z,79.70
2017-08-19T18:30:28.114Z,80.20
2017-08-19T18:32:55.749Z,80.10
2017-08-19T18:35:24.575Z,80.80
2017-08-19T18:37:52.143Z,80.90
2017-08-19T18:40:19.770Z,81.10
2017-08-19T18:42:48.342Z,81.40
2017-08-19T18:45:16.846Z,80.80
2017-08-19T18:47:44.408Z,82.40
2017-08-19T18:50:11.968Z,80.00
2017-08-19T18:52:39.501Z,78.50
2017-08-19T18:55:07.082Z,78.70
2017-08-19T18:57:36.566Z,79.20
2017-08-19T19:00:04.214Z,80.10
2017-08-19T19:02:31.761Z,81.50
2017-08-19T19:04:59.307Z,82.10
2017-08-19T19:07:26.898Z,83.20
2017-08-19T19:09:54.477Z,84.40
2017-08-19T19:12:22.134Z,85.30
2017-08-19T19:14:49.697Z,85.70
2017-08-19T19:17:17.228Z,85.40
2017-08-19T19:19:44.834Z,85.40
2017-08-19T19:22:12.497Z,86.20
2017-08-19T19:24:43.346Z,85.60
2017-08-19T19:27:10.993Z,85.70
2017-08-19T19:29:38.567Z,85.40
2017-08-19T19:32:06.105Z,86.10
2017-08-19T19:34:34.014Z,85.80
2017-08-19T19:37:01.600Z,86.10
2017-08-19T19:39:29.136Z,86.30
2017-08-19T19:41:56.732Z,86.40
2017-08-19T19:44:24.283Z,86.20
2017-08-19T19:46:51.804Z,86.50
2017-08-19T19:49:19.350Z,86.70
2017-08-19T19:51:49.682Z,86.90
2017-08-19T19:54:17.408Z,87.40
2017-08-19T19:56:45.558Z,87.50
2017-08-19T19:59:13.171Z,87.80
2017-08-19T20:01:40.730Z,87.70
2017-08-19T20:04:08.267Z,87.60
2017-08-19T20:06:37.796Z,87.40
2017-08-19T20:09:05.390Z,87.60
2017-08-19T20:11:32.967Z,87.70
2017-08-19T20:14:01.776Z,87.90
2017-08-19T20:16:29.364Z,88.30
2017-08-19T20:18:56.968Z,88.70
2017-08-19T20:21:24.583Z,88.00
2017-08-19T20:23:52.192Z,88.60
2017-08-19T20:26:19.781Z,88.80
2017-08-19T20:28:47.387Z,88.90
2017-08-19T20:31:14.989Z,89.00
2017-08-19T20:33:42.548Z,89.30
2017-08-19T20:36:10.149Z,89.40
2017-08-19T20:38:38.750Z,89.20
2017-08-19T20:41:06.296Z,89.30
2017-08-19T20:43:33.854Z,89.60
2017-08-19T20:46:02.411Z,89.70
2017-08-19T20:48:29.961Z,90.00
2017-08-19T20:50:57.522Z,90.70
2017-08-19T20:53:25.116Z,90.90
2017-08-19T20:55:52.718Z,90.30
2017-08-19T20:58:20.307Z,90.80
2017-08-19T21:00:47.865Z,90.40
2017-08-19T21:03:15.692Z,90.40
2017-08-19T21:05:43.311Z,90.40
2017-08-19T21:08:11.289Z,90.10
2017-08-19T21:10:38.924Z,89.90
2017-08-19T21:13:06.544Z,90.20
2017-08-19T21:15:34.097Z,90.30
2017-08-19T21:18:02.624Z,90.60
2017-08-19T21:20:31.302Z,91.10
2017-08-19T21:22:58.943Z,91.50
2017-08-19T21:25:27.515Z,91.60
2017-08-19T21:27:57.073Z,91.80
2017-08-19T21:30:24.681Z,92.10
2017-08-19T21:32:53.099Z,92.30
2017-08-19T21:35:20.706Z,92.60
2017-08-19T21:37:48.264Z,92.60
2017-08-19T21:40:15.836Z,92.50
2017-08-19T21:42:43.641Z,92.40
2017-08-19T21:45:11.251Z,92.40
2017-08-19T21:47:38.852Z,92.50
2017-08-19T21:50:06.413Z,92.30
2017-08-19T21:52:33.955Z,92.10
2017-08-19T21:55:03.507Z,92.50
2017-08-19T21:57:31.142Z,92.10
2017-08-19T21:59:58.720Z,92.00
2017-08-19T22:02:26.268Z,92.40
2017-08-19T22:04:53.827Z,92.30
2017-08-19T22:07:21.361Z,92.40
2017-08-19T22:09:48.927Z,92.20
2017-08-19T22:12:16.523Z,92.30
2017-08-19T22:14:44.077Z,92.20
2017-08-19T22:17:11.566Z,92.30
2017-08-19T22:19:40.106Z,92.50
2017-08-19T22:22:17.267Z,92.40
2017-08-19T22:24:45.636Z,92.70
2017-08-19T22:27:13.206Z,92.90
2017-08-19T22:29:40.758Z,92.90
2017-08-19T22:32:09.275Z,93.20
2017-08-19T22:34:38.784Z,93.00
2017-08-19T22:37:06.331Z,92.90
2017-08-19T22:39:33.899Z,92.90
2017-08-19T22:42:01.426Z,92.60
2017-08-19T22:44:28.971Z,92.70
2017-08-19T22:46:56.528Z,92.60
2017-08-19T22:49:24.153Z,92.40
2017-08-19T22:51:51.682Z,92.50
2017-08-19T22:54:19.216Z,92.60
2017-08-19T22:56:46.745Z,92.80
2017-08-19T22:59:14.282Z,93.00
2017-08-19T23:01:41.915Z,93.30
2017-08-19T23:04:10.368Z,93.40
2017-08-19T23:06:37.980Z,93.70
2017-08-19T23:09:05.555Z,93.70
2017-08-19T23:11:35.056Z,93.70
2017-08-19T23:14:02.585Z,93.70
2017-08-19T23:16:30.182Z,93.40
2017-08-19T23:18:57.855Z,93.60
2017-08-19T23:21:25.449Z,93.90
2017-08-19T23:23:53.002Z,93.90
2017-08-19T23:26:20.596Z,94.70
2017-08-19T23:28:48.155Z,95.30
2017-08-19T23:31:15.759Z,95.50
2017-08-19T23:33:44.234Z,95.40
2017-08-19T23:36:11.839Z,94.90
2017-08-19T23:38:39.493Z,95.00
2017-08-19T23:41:07.026Z,94.90
2017-08-19T23:43:34.642Z,95.00
2017-08-19T23:46:02.171Z,94.90
2017-08-19T23:48:29.770Z,95.00
2017-08-19T23:50:57.288Z,95.30
2017-08-19T23:53:24.901Z,95.10
2017-08-19T23:55:52.503Z,95.30
2017-08-19T23:58:20.010Z,94.80
